sensor_id;sensor_type;location;lat;lon;timestamp;pressure;altitude;pressure_sealevel;temperature;humidity
7157;BME280;3620;49.862;8.758;2023-02-02T00:00:19;99701.50;;;7.23;100.00
7157;BME280;3620;49.862;8.758;2023-02-02T00:02:45;99707.66;;;7.22;100.00
7157;BME280;3620;49.862;8.758;2023-02-02T00:05:12;99693.63;;;7.24;100.00
7157;BME280;3620;49.862;8.758;2023-02-02T00:07:38;99695.28;;;7.28;100.00
7157;BME280;3620;49.862;8.758;2023-02-02T00:10:05;99706.03;;;7.16;100.00
7157;BME280;3620;49.862;8.758;2023-02-02T00:12:32;99704.41;;;7.12;100.00
7157;BME280;3620;49.862;8.758;2023-02-02T00:14:59;99690.13;;;7.25;100.00
7157;BME280;3620;49.862;8.758;2023-02-02T00:17:27;99695.34;;;7.25;100.00
7157;BME280;3620;49.862;8.758;2023-02-02T00:19:53;99701.63;;;7.20;100.00
7157;BME280;3620;49.862;8.758;2023-02-02T00:22:20;99702.22;;;7.29;100.00
7157;BME280;3620;49.862;8.758;2023-02-02T00:24:46;99704.13;;;7.23;100.00
7157;BME280;3620;49.862;8.758;2023-02-02T00:27:13;99700.59;;;7.25;100.00
7157;BME280;3620;49.862;8.758;2023-02-02T00:29:39;99706.09;;;7.13;100.00
7157;BME280;3620;49.862;8.758;2023-02-02T00:32:06;99698.25;;;7.13;100.00
7157;BME280;3620;49.862;8.758;2023-02-02T00:34:34;99704.19;;;7.21;100.00
7157;BME280;3620;49.862;8.758;2023-02-02T00:37:00;99709.31;;;7.24;100.00
7157;BME280;3620;49.862;8.758;2023-02-02T00:39:27;99696.06;;;7.32;100.00
7157;BME280;3620;49.862;8.758;2023-02-02T00:41:54;99698.41;;;7.43;100.00
7157;BME280;3620;49.862;8.758;2023-02-02T00:44:21;99701.00;;;7.43;100.00
7157;BME280;3620;49.862;8.758;2023-02-02T00:47:05;99700.38;;;7.34;100.00
7157;BME280;3620;49.862;8.758;2023-02-02T00:49:31;99697.69;;;7.36;100.00
7157;BME280;3620;49.862;8.758;2023-02-02T00:51:59;99696.47;;;7.51;100.00
7157;BME280;3620;49.862;8.758;2023-02-02T00:54:26;99698.56;;;7.36;100.00
7157;BME280;3620;49.862;8.758;2023-02-02T00:56:53;99694.97;;;7.40;100.00
7157;BME280;3620;49.862;8.758;2023-02-02T00:59:20;99686.28;;;7.38;100.00
7157;BME280;3620;49.862;8.758;2023-02-02T01:01:46;99687.28;;;7.34;100.00
7157;BME280;3620;49.862;8.758;2023-02-02T01:04:13;99682.78;;;7.39;100.00
7157;BME280;3620;49.862;8.758;2023-02-02T01:06:39;99702.50;;;7.19;100.00
7157;BME280;3620;49.862;8.758;2023-02-02T01:09:07;99707.63;;;7.23;100.00
7157;BME280;3620;49.862;8.758;2023-02-02T01:11:34;99695.19;;;7.31;100.00
7157;BME280;3620;49.862;8.758;2023-02-02T01:14:01;99698.63;;;7.33;100.00
7157;BME280;3620;49.862;8.758;2023-02-02T01:16:28;99694.09;;;7.40;100.00
7157;BME280;3620;49.862;8.758;2023-02-02T01:18:55;99699.25;;;7.43;100.00
7157;BME280;3620;49.862;8.758;2023-02-02T01:21:21;99706.53;;;7.32;100.00
7157;BME280;3620;49.862;8.758;2023-02-02T01:23:48;99699.44;;;7.35;100.00
7157;BME280;3620;49.862;8.758;2023-02-02T01:26:16;99700.38;;;7.34;100.00
7157;BME280;3620;49.862;8.758;2023-02-02T01:28:43;99701.13;;;7.39;100.00
7157;BME280;3620;49.862;8.758;2023-02-02T01:31:11;99700.53;;;7.28;100.00
7157;BME280;3620;49.862;8.758;2023-02-02T01:33:38;99698.72;;;7.30;100.00
7157;BME280;3620;49.862;8.758;2023-02-02T01:36:07;99698.78;;;7.27;100.00
7157;BME280;3620;49.862;8.758;2023-02-02T01:38:35;99698.56;;;7.36;100.00
7157;BME280;3620;49.862;8.758;2023-02-02T01:41:02;99708.38;;;7.28;100.00
7157;BME280;3620;49.862;8.758;2023-02-02T01:43:52;99703.72;;;7.39;100.00
7157;BME280;3620;49.862;8.758;2023-02-02T01:46:20;99710.38;;;7.53;100.00
7157;BME280;3620;49.862;8.758;2023-02-02T01:48:50;99713.16;;;7.45;100.00
7157;BME280;3620;49.862;8.758;2023-02-02T01:51:20;99716.88;;;7.36;100.00
7157;BME280;3620;49.862;8.758;2023-02-02T01:53:50;99714.91;;;7.45;100.00
7157;BME280;3620;49.862;8.758;2023-02-02T01:56:20;99722.13;;;7.36;100.00
7157;BME280;3620;49.862;8.758;2023-02-02T01:58:51;99718.72;;;7.33;100.00
7157;BME280;3620;49.862;8.758;2023-02-02T02:01:18;99712.25;;;7.48;100.00
7157;BME280;3620;49.862;8.758;2023-02-02T02:03:44;99719.44;;;7.39;100.00
7157;BME280;3620;49.862;8.758;2023-02-02T02:06:14;99721.34;;;7.31;100.00
7157;BME280;3620;49.862;8.758;2023-02-02T02:08:45;99719.63;;;7.66;100.00
7157;BME280;3620;49.862;8.758;2023-02-02T02:11:13;99708.81;;;7.46;100.00
7157;BME280;3620;49.862;8.758;2023-02-02T02:13:40;99709.78;;;7.42;100.00
7157;BME280;3620;49.862;8.758;2023-02-02T02:16:36;99702.75;;;7.44;100.00
7157;BME280;3620;49.862;8.758;2023-02-02T02:19:16;99707.81;;;7.50;100.00
7157;BME280;3620;49.862;8.758;2023-02-02T02:21:54;99706.06;;;7.50;100.00
7157;BME280;3620;49.862;8.758;2023-02-02T02:28:27;99700.09;;;7.45;100.00
7157;BME280;3620;49.862;8.758;2023-02-02T02:31:11;99706.81;;;7.55;100.00
7157;BME280;3620;49.862;8.758;2023-02-02T02:33:47;99708.50;;;7.58;100.00
7157;BME280;3620;49.862;8.758;2023-02-02T02:36:21;99711.41;;;7.46;100.00
7157;BME280;3620;49.862;8.758;2023-02-02T02:38:56;99710.56;;;7.45;100.00
7157;BME280;3620;49.862;8.758;2023-02-02T02:41:28;99703.63;;;7.43;100.00
7157;BME280;3620;49.862;8.758;2023-02-02T02:44:01;99712.69;;;7.31;100.00
7157;BME280;3620;49.862;8.758;2023-02-02T02:46:29;99711.06;;;7.25;100.00
7157;BME280;3620;49.862;8.758;2023-02-02T02:48:59;99693.38;;;7.35;100.00
7157;BME280;3620;49.862;8.758;2023-02-02T02:51:45;99712.41;;;7.42;100.00
7157;BME280;3620;49.862;8.758;2023-02-02T02:54:15;99714.16;;;7.41;100.00
7157;BME280;3620;49.862;8.758;2023-02-02T03:00:02;99710.16;;;7.60;100.00
7157;BME280;3620;49.862;8.758;2023-02-02T03:02:41;99702.53;;;7.53;100.00
7157;BME280;3620;49.862;8.758;2023-02-02T03:05:22;99709.22;;;7.63;100.00
7157;BME280;3620;49.862;8.758;2023-02-02T03:07:56;99707.63;;;7.57;100.00
7157;BME280;3620;49.862;8.758;2023-02-02T03:10:27;99707.78;;;7.51;100.00
7157;BME280;3620;49.862;8.758;2023-02-02T03:12:55;99710.13;;;7.62;100.00
7157;BME280;3620;49.862;8.758;2023-02-02T03:15:23;99702.47;;;7.54;100.00
7157;BME280;3620;49.862;8.758;2023-02-02T03:17:51;99701.47;;;7.60;100.00
7157;BME280;3620;49.862;8.758;2023-02-02T03:20:20;99696.13;;;7.63;100.00
7157;BME280;3620;49.862;8.758;2023-02-02T03:22:46;99699.91;;;7.53;100.00
7157;BME280;3620;49.862;8.758;2023-02-02T03:25:13;99703.84;;;7.69;100.00
7157;BME280;3620;49.862;8.758;2023-02-02T03:27:40;99712.00;;;7.57;100.00
7157;BME280;3620;49.862;8.758;2023-02-02T03:30:10;99710.03;;;7.65;100.00
7157;BME280;3620;49.862;8.758;2023-02-02T03:32:37;99703.00;;;7.67;100.00
7157;BME280;3620;49.862;8.758;2023-02-02T03:35:05;99704.56;;;7.74;100.00
7157;BME280;3620;49.862;8.758;2023-02-02T03:37:33;99720.91;;;7.50;100.00
7157;BME280;3620;49.862;8.758;2023-02-02T03:40:00;99715.84;;;7.44;100.00
7157;BME280;3620;49.862;8.758;2023-02-02T03:42:26;99704.81;;;7.31;100.00
7157;BME280;3620;49.862;8.758;2023-02-02T03:44:53;99711.06;;;7.25;100.00
7157;BME280;3620;49.862;8.758;2023-02-02T03:47:19;99716.13;;;7.31;100.00
7157;BME280;3620;49.862;8.758;2023-02-02T03:49:45;99711.13;;;7.22;100.00
7157;BME280;3620;49.862;8.758;2023-02-02T03:52:12;99714.56;;;7.24;100.00
7157;BME280;3620;49.862;8.758;2023-02-02T03:54:40;99710.41;;;7.16;100.00
7157;BME280;3620;49.862;8.758;2023-02-02T03:57:06;99700.88;;;7.13;100.00
7157;BME280;3620;49.862;8.758;2023-02-02T03:59:33;99707.91;;;7.11;100.00
7157;BME280;3620;49.862;8.758;2023-02-02T04:01:59;99696.72;;;7.05;100.00
7157;BME280;3620;49.862;8.758;2023-02-02T04:04:26;99696.41;;;7.18;100.00
7157;BME280;3620;49.862;8.758;2023-02-02T04:06:52;99707.69;;;7.20;100.00
7157;BME280;3620;49.862;8.758;2023-02-02T04:09:19;99696.50;;;7.15;100.00
7157;BME280;3620;49.862;8.758;2023-02-02T04:11:47;99709.41;;;7.21;100.00
7157;BME280;3620;49.862;8.758;2023-02-02T04:14:13;99710.19;;;7.25;100.00
7157;BME280;3620;49.862;8.758;2023-02-02T04:16:40;99711.16;;;7.21;100.00
7157;BME280;3620;49.862;8.758;2023-02-02T04:19:07;99719.78;;;7.24;100.00
7157;BME280;3620;49.862;8.758;2023-02-02T04:21:33;99719.88;;;7.21;100.00
7157;BME280;3620;49.862;8.758;2023-02-02T04:24:00;99714.53;;;7.26;100.00
7157;BME280;3620;49.862;8.758;2023-02-02T04:26:26;99722.72;;;7.48;100.00
7157;BME280;3620;49.862;8.758;2023-02-02T04:28:54;99735.63;;;7.55;100.00
7157;BME280;3620;49.862;8.758;2023-02-02T04:31:21;99729.09;;;7.37;100.00
7157;BME280;3620;49.862;8.758;2023-02-02T04:33:47;99734.97;;;7.46;100.00
7157;BME280;3620;49.862;8.758;2023-02-02T04:36:14;99732.13;;;7.55;100.00
7157;BME280;3620;49.862;8.758;2023-02-02T04:38:40;99736.44;;;7.56;100.00
7157;BME280;3620;49.862;8.758;2023-02-02T04:41:08;99738.94;;;7.62;100.00
7157;BME280;3620;49.862;8.758;2023-02-02T04:43:36;99745.06;;;7.61;100.00
7157;BME280;3620;49.862;8.758;2023-02-02T04:46:04;99760.00;;;7.56;100.00
7157;BME280;3620;49.862;8.758;2023-02-02T04:48:31;99759.31;;;7.49;100.00
7157;BME280;3620;49.862;8.758;2023-02-02T04:50:58;99760.75;;;7.61;100.00
7157;BME280;3620;49.862;8.758;2023-02-02T04:53:25;99750.69;;;7.46;100.00
7157;BME280;3620;49.862;8.758;2023-02-02T04:55:52;99758.75;;;7.36;100.00
7157;BME280;3620;49.862;8.758;2023-02-02T04:58:19;99761.75;;;7.57;100.00
7157;BME280;3620;49.862;8.758;2023-02-02T05:00:45;99756.44;;;7.60;100.00
7157;BME280;3620;49.862;8.758;2023-02-02T05:03:13;99759.56;;;7.38;100.00
7157;BME280;3620;49.862;8.758;2023-02-02T05:05:40;99761.16;;;7.46;100.00
7157;BME280;3620;49.862;8.758;2023-02-02T05:08:06;99755.69;;;7.55;100.00
7157;BME280;3620;49.862;8.758;2023-02-02T05:10:38;99768.03;;;7.50;100.00
7157;BME280;3620;49.862;8.758;2023-02-02T05:13:05;99775.06;;;7.48;100.00
7157;BME280;3620;49.862;8.758;2023-02-02T05:15:32;99761.16;;;7.46;100.00
7157;BME280;3620;49.862;8.758;2023-02-02T05:17:58;99776.56;;;7.58;100.00
7157;BME280;3620;49.862;8.758;2023-02-02T05:20:26;99771.34;;;7.58;100.00
7157;BME280;3620;49.862;8.758;2023-02-02T05:22:52;99779.19;;;7.58;100.00
7157;BME280;3620;49.862;8.758;2023-02-02T05:25:19;99785.31;;;7.57;100.00
7157;BME280;3620;49.862;8.758;2023-02-02T05:27:45;99778.28;;;7.59;100.00
7157;BME280;3620;49.862;8.758;2023-02-02T05:30:13;99776.47;;;7.61;100.00
7157;BME280;3620;49.862;8.758;2023-02-02T05:32:40;99783.50;;;7.59;100.00
7157;BME280;3620;49.862;8.758;2023-02-02T05:35:08;99781.00;;;7.54;100.00
7157;BME280;3620;49.862;8.758;2023-02-02T05:37:36;99785.38;;;7.54;100.00
7157;BME280;3620;49.862;8.758;2023-02-02T05:40:03;99794.91;;;7.56;100.00
7157;BME280;3620;49.862;8.758;2023-02-02T05:42:30;99787.91;;;7.57;100.00
7157;BME280;3620;49.862;8.758;2023-02-02T05:44:56;99787.06;;;7.56;100.00
7157;BME280;3620;49.862;8.758;2023-02-02T05:47:23;99785.75;;;7.38;100.00
7157;BME280;3620;49.862;8.758;2023-02-02T05:49:50;99786.47;;;7.45;100.00
7157;BME280;3620;49.862;8.758;2023-02-02T05:52:18;99783.00;;;7.43;100.00
7157;BME280;3620;49.862;8.758;2023-02-02T05:54:47;99790.97;;;7.38;100.00
7157;BME280;3620;49.862;8.758;2023-02-02T05:57:13;99792.19;;;7.61;100.00
7157;BME280;3620;49.862;8.758;2023-02-02T05:59:40;99794.69;;;7.65;100.00
7157;BME280;3620;49.862;8.758;2023-02-02T06:02:06;99797.41;;;7.61;100.00
7157;BME280;3620;49.862;8.758;2023-02-02T06:04:33;99793.97;;;7.59;100.00
7157;BME280;3620;49.862;8.758;2023-02-02T06:06:59;99806.47;;;7.83;100.00
7157;BME280;3620;49.862;8.758;2023-02-02T06:09:26;99797.66;;;7.85;100.00
7157;BME280;3620;49.862;8.758;2023-02-02T06:11:54;99798.59;;;7.83;100.00
7157;BME280;3620;49.862;8.758;2023-02-02T06:14:20;99801.97;;;7.88;100.00
7157;BME280;3620;49.862;8.758;2023-02-02T06:16:47;99795.88;;;7.87;100.00
7157;BME280;3620;49.862;8.758;2023-02-02T06:19:14;99807.28;;;7.85;100.00
7157;BME280;3620;49.862;8.758;2023-02-02T06:21:41;99793.06;;;7.95;100.00
7157;BME280;3620;49.862;8.758;2023-02-02T06:24:07;99802.56;;;7.99;100.00
7157;BME280;3620;49.862;8.758;2023-02-02T06:26:34;99807.03;;;7.94;100.00
7157;BME280;3620;49.862;8.758;2023-02-02T06:29:02;99808.91;;;7.89;100.00
7157;BME280;3620;49.862;8.758;2023-02-02T06:31:29;99812.69;;;7.79;100.00
7157;BME280;3620;49.862;8.758;2023-02-02T06:33:57;99812.28;;;7.94;100.00
7157;BME280;3620;49.862;8.758;2023-02-02T06:36:25;99805.19;;;7.99;100.00
7157;BME280;3620;49.862;8.758;2023-02-02T06:38:53;99804.59;;;7.88;100.00
7157;BME280;3620;49.862;8.758;2023-02-02T06:41:20;99808.03;;;7.90;100.00
7157;BME280;3620;49.862;8.758;2023-02-02T06:43:47;99804.59;;;7.88;100.00
7157;BME280;3620;49.862;8.758;2023-02-02T06:46:15;99817.53;;;7.94;100.00
7157;BME280;3620;49.862;8.758;2023-02-02T06:48:42;99809.78;;;7.91;100.00
7157;BME280;3620;49.862;8.758;2023-02-02T06:51:10;99810.72;;;7.87;100.00
7157;BME280;3620;49.862;8.758;2023-02-02T06:53:36;99801.00;;;7.92;100.00
7157;BME280;3620;49.862;8.758;2023-02-02T06:56:05;99812.75;;;7.76;100.00
7157;BME280;3620;49.862;8.758;2023-02-02T06:58:33;99816.97;;;7.81;100.00
7157;BME280;3620;49.862;8.758;2023-02-02T07:01:01;99822.97;;;7.86;100.00
7157;BME280;3620;49.862;8.758;2023-02-02T07:03:31;99822.94;;;7.88;100.00
7157;BME280;3620;49.862;8.758;2023-02-02T07:05:58;99815.88;;;7.90;100.00
7157;BME280;3620;49.862;8.758;2023-02-02T07:08:24;99807.03;;;7.94;100.00
7157;BME280;3620;49.862;8.758;2023-02-02T07:10:51;99812.44;;;7.88;100.00
7157;BME280;3620;49.862;8.758;2023-02-02T07:13:17;99811.34;;;7.96;100.00
7157;BME280;3620;49.862;8.758;2023-02-02T07:15:44;99821.78;;;7.98;100.00
7157;BME280;3620;49.862;8.758;2023-02-02T07:18:10;99813.97;;;7.96;100.00
7157;BME280;3620;49.862;8.758;2023-02-02T07:20:38;99805.06;;;8.03;100.00
7157;BME280;3620;49.862;8.758;2023-02-02T07:23:05;99810.72;;;7.87;100.00
7157;BME280;3620;49.862;8.758;2023-02-02T07:25:31;99810.66;;;7.90;100.00
7157;BME280;3620;49.862;8.758;2023-02-02T07:27:58;99820.97;;;7.96;100.00
7157;BME280;3620;49.862;8.758;2023-02-02T07:30:24;99821.88;;;7.95;100.00
7157;BME280;3620;49.862;8.758;2023-02-02T07:32:54;99831.44;;;7.96;100.00
7157;BME280;3620;49.862;8.758;2023-02-02T07:35:20;99826.53;;;7.84;100.00
7157;BME280;3620;49.862;8.758;2023-02-02T07:37:51;99832.94;;;8.06;100.00
7157;BME280;3620;49.862;8.758;2023-02-02T07:40:18;99837.47;;;7.99;100.00
7157;BME280;3620;49.862;8.758;2023-02-02T07:42:45;99836.63;;;7.99;100.00
7157;BME280;3620;49.862;8.758;2023-02-02T07:45:12;99846.94;;;8.05;100.00
7157;BME280;3620;49.862;8.758;2023-02-02T07:47:38;99853.69;;;8.15;100.00
7157;BME280;3620;49.862;8.758;2023-02-02T07:50:05;99850.06;;;8.19;100.00
7157;BME280;3620;49.862;8.758;2023-02-02T07:52:32;99860.03;;;8.05;100.00
7157;BME280;3620;49.862;8.758;2023-02-02T07:55:00;99859.91;;;8.09;100.00
7157;BME280;3620;49.862;8.758;2023-02-02T07:57:26;99861.59;;;8.12;100.00
7157;BME280;3620;49.862;8.758;2023-02-02T07:59:53;99862.06;;;8.29;100.00
7157;BME280;3620;49.862;8.758;2023-02-02T08:02:19;99872.19;;;8.07;100.00
7157;BME280;3620;49.862;8.758;2023-02-02T08:04:46;99866.31;;;7.98;100.00
7157;BME280;3620;49.862;8.758;2023-02-02T08:07:12;99866.91;;;8.09;100.00
7157;BME280;3620;49.862;8.758;2023-02-02T08:09:44;99865.69;;;8.24;100.00
7157;BME280;3620;49.862;8.758;2023-02-02T08:12:13;99881.31;;;8.28;100.00
7157;BME280;3620;49.862;8.758;2023-02-02T08:14:40;99872.03;;;8.15;100.00
7157;BME280;3620;49.862;8.758;2023-02-02T08:17:06;99864.06;;;8.18;100.00
7157;BME280;3620;49.862;8.758;2023-02-02T08:19:33;99867.50;;;8.20;100.00
7157;BME280;3620;49.862;8.758;2023-02-02T08:21:59;99870.50;;;8.05;100.00
7157;BME280;3620;49.862;8.758;2023-02-02T08:24:26;99871.25;;;8.10;100.00
7157;BME280;3620;49.862;8.758;2023-02-02T08:26:52;99864.22;;;8.12;100.00
7157;BME280;3620;49.862;8.758;2023-02-02T08:29:20;99868.75;;;8.05;100.00
7157;BME280;3620;49.862;8.758;2023-02-02T08:31:47;99869.84;;;7.97;100.00
7157;BME280;3620;49.862;8.758;2023-02-02T08:34:13;99882.25;;;7.89;100.00
7157;BME280;3620;49.862;8.758;2023-02-02T08:36:40;99885.03;;;7.83;100.00
7157;BME280;3620;49.862;8.758;2023-02-02T08:39:09;99889.44;;;7.81;100.00
7157;BME280;3620;49.862;8.758;2023-02-02T08:41:36;99880.56;;;7.88;100.00
7157;BME280;3620;49.862;8.758;2023-02-02T08:44:05;99873.78;;;7.78;100.00
7157;BME280;3620;49.862;8.758;2023-02-02T08:46:33;99886.00;;;7.79;100.00
7157;BME280;3620;49.862;8.758;2023-02-02T08:48:59;99891.03;;;7.88;100.00
7157;BME280;3620;49.862;8.758;2023-02-02T08:51:26;99900.34;;;7.99;100.00
7157;BME280;3620;49.862;8.758;2023-02-02T08:53:53;99899.00;;;7.83;100.00
7157;BME280;3620;49.862;8.758;2023-02-02T08:56:20;99890.59;;;8.06;100.00
7157;BME280;3620;49.862;8.758;2023-02-02T08:58:51;99896.19;;;7.91;100.00
7157;BME280;3620;49.862;8.758;2023-02-02T09:01:19;99884.16;;;7.84;100.00
7157;BME280;3620;49.862;8.758;2023-02-02T09:03:48;99891.97;;;7.85;100.00
7157;BME280;3620;49.862;8.758;2023-02-02T09:06:18;99892.59;;;7.95;100.00
7157;BME280;3620;49.862;8.758;2023-02-02T09:08:46;99897.03;;;7.93;100.00
7157;BME280;3620;49.862;8.758;2023-02-02T09:11:14;99889.00;;;7.99;100.00
7157;BME280;3620;49.862;8.758;2023-02-02T09:13:43;99897.63;;;8.04;100.00
7157;BME280;3620;49.862;8.758;2023-02-02T09:16:12;99906.44;;;8.00;100.00
7157;BME280;3620;49.862;8.758;2023-02-02T09:18:40;99881.81;;;8.07;100.00
7157;BME280;3620;49.862;8.758;2023-02-02T09:21:09;99895.72;;;8.09;100.00
7157;BME280;3620;49.862;8.758;2023-02-02T09:23:38;99896.44;;;8.15;100.00
7157;BME280;3620;49.862;8.758;2023-02-02T09:26:09;99889.19;;;8.27;100.00
7157;BME280;3620;49.862;8.758;2023-02-02T09:28:36;99901.66;;;8.17;100.00
7157;BME280;3620;49.862;8.758;2023-02-02T09:31:03;99909.00;;;8.03;100.00
7157;BME280;3620;49.862;8.758;2023-02-02T09:33:29;99918.50;;;8.07;100.00
7157;BME280;3620;49.862;8.758;2023-02-02T09:36:03;99896.44;;;8.15;100.00
7157;BME280;3620;49.862;8.758;2023-02-02T09:38:34;99900.75;;;8.18;100.00
7157;BME280;3620;49.862;8.758;2023-02-02T09:41:27;99903.34;;;8.20;99.50
7157;BME280;3620;49.862;8.758;2023-02-02T09:44:03;99899.97;;;8.14;99.79
7157;BME280;3620;49.862;8.758;2023-02-02T09:46:41;99906.78;;;8.22;99.47
7157;BME280;3620;49.862;8.758;2023-02-02T09:49:12;99905.44;;;8.41;99.22
7157;BME280;3620;49.862;8.758;2023-02-02T09:51:44;99906.97;;;8.14;99.89
7157;BME280;3620;49.862;8.758;2023-02-02T09:54:17;99917.09;;;8.29;98.50
7157;BME280;3620;49.862;8.758;2023-02-02T09:56:48;99903.09;;;8.30;98.20
7157;BME280;3620;49.862;8.758;2023-02-02T09:59:20;99939.81;;;8.30;98.46
7157;BME280;3620;49.862;8.758;2023-02-02T10:01:52;99938.66;;;8.40;96.86
7157;BME280;3620;49.862;8.758;2023-02-02T10:04:22;99935.31;;;8.35;97.28
7157;BME280;3620;49.862;8.758;2023-02-02T10:06:53;99952.69;;;8.39;96.86
7157;BME280;3620;49.862;8.758;2023-02-02T10:09:32;99954.53;;;8.34;95.94
7157;BME280;3620;49.862;8.758;2023-02-02T10:12:05;99964.88;;;8.40;96.54
7157;BME280;3620;49.862;8.758;2023-02-02T10:14:43;99961.28;;;8.44;95.42
7157;BME280;3620;49.862;8.758;2023-02-02T10:17:29;99967.66;;;8.34;95.98
7157;BME280;3620;49.862;8.758;2023-02-02T10:20:02;99972.06;;;8.32;95.95
7157;BME280;3620;49.862;8.758;2023-02-02T10:22:32;99965.22;;;8.25;96.42
7157;BME280;3620;49.862;8.758;2023-02-02T10:25:00;99967.75;;;8.30;96.87
7157;BME280;3620;49.862;8.758;2023-02-02T10:27:34;99975.28;;;8.43;96.11
7157;BME280;3620;49.862;8.758;2023-02-02T10:30:06;99972.00;;;8.35;95.62
7157;BME280;3620;49.862;8.758;2023-02-02T10:32:46;99977.03;;;8.44;95.43
7157;BME280;3620;49.862;8.758;2023-02-02T10:35:29;99982.50;;;8.35;96.53
7157;BME280;3620;49.862;8.758;2023-02-02T10:38:07;99984.31;;;8.32;96.54
7157;BME280;3620;49.862;8.758;2023-02-02T10:40:45;99988.09;;;8.55;95.72
7157;BME280;3620;49.862;8.758;2023-02-02T10:43:29;99986.38;;;8.54;95.20
7157;BME280;3620;49.862;8.758;2023-02-02T10:46:16;99981.94;;;8.56;94.91
7157;BME280;3620;49.862;8.758;2023-02-02T10:48:46;99970.69;;;8.53;95.07
7157;BME280;3620;49.862;8.758;2023-02-02T10:51:17;99981.19;;;8.53;94.66
7157;BME280;3620;49.862;8.758;2023-02-02T10:53:51;99988.94;;;8.57;94.49
7157;BME280;3620;49.862;8.758;2023-02-02T10:56:22;99983.50;;;8.63;94.46
7157;BME280;3620;49.862;8.758;2023-02-02T10:58:56;99977.50;;;8.60;94.28
7157;BME280;3620;49.862;8.758;2023-02-02T11:01:24;99975.59;;;8.65;94.26
7157;BME280;3620;49.862;8.758;2023-02-02T11:03:51;99975.06;;;8.52;94.36
7157;BME280;3620;49.862;8.758;2023-02-02T11:06:38;99970.88;;;8.45;94.98
7157;BME280;3620;49.862;8.758;2023-02-02T11:09:19;99974.00;;;8.59;95.03
7157;BME280;3620;49.862;8.758;2023-02-02T11:11:50;99989.16;;;8.48;95.36
7157;BME280;3620;49.862;8.758;2023-02-02T11:14:27;99969.75;;;8.55;95.21
7157;BME280;3620;49.862;8.758;2023-02-02T11:17:00;99960.09;;;8.56;95.69
7157;BME280;3620;49.862;8.758;2023-02-02T11:19:29;99972.44;;;8.52;95.12
7157;BME280;3620;49.862;8.758;2023-02-02T11:21:56;99968.00;;;8.54;94.51
7157;BME280;3620;49.862;8.758;2023-02-02T11:24:26;99966.88;;;8.64;94.26
7157;BME280;3620;49.862;8.758;2023-02-02T11:26:56;99978.28;;;8.63;93.63
7157;BME280;3620;49.862;8.758;2023-02-02T11:29:26;99968.88;;;8.87;93.34
7157;BME280;3620;49.862;8.758;2023-02-02T11:31:54;99971.16;;;8.68;94.05
7157;BME280;3620;49.862;8.758;2023-02-02T11:34:23;99962.81;;;8.85;92.58
7157;BME280;3620;49.862;8.758;2023-02-02T11:37:09;99965.50;;;8.83;91.86
7157;BME280;3620;49.862;8.758;2023-02-02T11:39:37;99976.06;;;8.80;92.25
7157;BME280;3620;49.862;8.758;2023-02-02T11:42:07;99965.63;;;8.79;92.69
7157;BME280;3620;49.862;8.758;2023-02-02T11:44:39;99956.88;;;8.78;92.71
7157;BME280;3620;49.862;8.758;2023-02-02T11:47:18;99955.19;;;8.77;94.06
7157;BME280;3620;49.862;8.758;2023-02-02T11:49:46;99958.69;;;8.76;93.24
7157;BME280;3620;49.862;8.758;2023-02-02T11:52:17;99951.56;;;8.81;93.70
7157;BME280;3620;49.862;8.758;2023-02-02T11:54:46;99944.13;;;8.66;94.97
7157;BME280;3620;49.862;8.758;2023-02-02T11:57:18;99946.56;;;8.72;94.49
7157;BME280;3620;49.862;8.758;2023-02-02T11:59:47;99951.56;;;8.81;94.08
7157;BME280;3620;49.862;8.758;2023-02-02T12:02:23;99938.69;;;8.72;92.95
7157;BME280;3620;49.862;8.758;2023-02-02T12:04:51;99939.59;;;8.71;94.50
7157;BME280;3620;49.862;8.758;2023-02-02T12:07:24;99945.22;;;8.90;93.09
7157;BME280;3620;49.862;8.758;2023-02-02T12:09:52;99940.91;;;8.88;92.84
7157;BME280;3620;49.862;8.758;2023-02-02T12:12:31;99944.38;;;8.88;93.87
7157;BME280;3620;49.862;8.758;2023-02-02T12:15:11;99933.94;;;8.87;93.90
7157;BME280;3620;49.862;8.758;2023-02-02T12:17:44;99936.66;;;8.83;94.25
7157;BME280;3620;49.862;8.758;2023-02-02T12:20:18;99932.38;;;8.79;94.95
7157;BME280;3620;49.862;8.758;2023-02-02T12:23:03;99940.00;;;8.89;95.04
7157;BME280;3620;49.862;8.758;2023-02-02T12:25:38;99930.97;;;8.99;94.72
7157;BME280;3620;49.862;8.758;2023-02-02T12:28:25;99921.97;;;9.07;93.65
7157;BME280;3620;49.862;8.758;2023-02-02T12:31:03;99941.25;;;9.06;94.31
7157;BME280;3620;49.862;8.758;2023-02-02T12:33:37;99940.56;;;9.00;94.17
7157;BME280;3620;49.862;8.758;2023-02-02T12:36:14;99936.91;;;9.05;94.04
7157;BME280;3620;49.862;8.758;2023-02-02T12:39:01;99939.34;;;9.11;94.28
7157;BME280;3620;49.862;8.758;2023-02-02T12:41:40;99931.09;;;9.25;92.96
7157;BME280;3620;49.862;8.758;2023-02-02T12:44:16;99935.91;;;9.09;94.10
7157;BME280;3620;49.862;8.758;2023-02-02T12:46:51;99940.09;;;8.85;95.41
7157;BME280;3620;49.862;8.758;2023-02-02T12:49:27;99934.72;;;9.21;93.99
7157;BME280;3620;49.862;8.758;2023-02-02T12:52:14;99930.38;;;9.49;92.31
7157;BME280;3620;49.862;8.758;2023-02-02T12:55:02;99924.56;;;9.38;91.96
7157;BME280;3620;49.862;8.758;2023-02-02T12:57:41;99935.19;;;9.35;93.50
7157;BME280;3620;49.862;8.758;2023-02-02T13:00:21;99926.50;;;9.33;93.62
7157;BME280;3620;49.862;8.758;2023-02-02T13:03:04;99919.97;;;9.46;92.68
7157;BME280;3620;49.862;8.758;2023-02-02T13:05:46;99926.16;;;9.43;93.06
7157;BME280;3620;49.862;8.758;2023-02-02T13:08:21;99924.31;;;9.47;93.29
7157;BME280;3620;49.862;8.758;2023-02-02T13:10:52;99936.59;;;9.46;92.76
7157;BME280;3620;49.862;8.758;2023-02-02T13:13:23;99935.53;;;9.52;92.80
7157;BME280;3620;49.862;8.758;2023-02-02T13:15:54;99931.81;;;9.59;92.42
7157;BME280;3620;49.862;8.758;2023-02-02T13:18:25;99935.47;;;9.55;92.39
7157;BME280;3620;49.862;8.758;2023-02-02T13:20:54;99938.50;;;9.69;91.88
7157;BME280;3620;49.862;8.758;2023-02-02T13:23:24;99946.78;;;9.55;91.45
7157;BME280;3620;49.862;8.758;2023-02-02T13:25:58;99941.59;;;9.83;90.58
7157;BME280;3620;49.862;8.758;2023-02-02T13:28:32;99948.38;;;9.90;90.51
7157;BME280;3620;49.862;8.758;2023-02-02T13:31:06;99943.59;;;9.75;92.43
7157;BME280;3620;49.862;8.758;2023-02-02T13:33:36;99955.06;;;9.73;91.58
7157;BME280;3620;49.862;8.758;2023-02-02T13:36:08;99952.56;;;9.68;91.98
7157;BME280;3620;49.862;8.758;2023-02-02T13:38:39;99949.53;;;9.80;91.24
7157;BME280;3620;49.862;8.758;2023-02-02T13:41:09;99967.59;;;9.63;92.99
7157;BME280;3620;49.862;8.758;2023-02-02T13:43:44;99969.34;;;9.64;93.97
7157;BME280;3620;49.862;8.758;2023-02-02T13:46:23;99956.28;;;9.61;94.83